Portada
METAR-TAF:

METAR-TAF

Aeroports :

Phetchabun, Tailàndia

latitud: 16-40-33N, longitud: 101-11-42E, altitud: 137 m

Observació

L'informe es va fer fa 6 hores i 50 minuts, a les 11:00 UTC
Vent calma
Temperatura 29°C
Humitat 74%
Pressió 1007 hPa
Visibilitat: 7000 m
Escasses núvols a una alçada de 2200 ft

METAR: VTPB 211100Z 00000KT 7000 FEW022 29/24 Q1007 NOSIG

Hora: 00:50 (17:50 UTC)

Pronòstic

L'informe es va fer fa 50 minuts, a les 17:00 UTC
Pronòstic vàlid del 21 a les 18 UTC al 22 a les 18 UTC
Vent 5 kt del Est/Nord-Est
Visibilitat 10 km o més
Núvols disperses a una alçada de 2500 ft
Temporalment
l' 22 a les 06 UTC al 22 a les 12 UTC
Vent 15 kt amb direcció variable amb ràfegues de 25 kt
Visibilitat: 5000 m
Escasses núvols a una alçada de 2000 ft, Cumulonimbus.
Cel ennuvolat a una alçada de 2500 ft
tempesta, pluja

TAF: VTPB 211700Z 2118/2218 07005KT 9999 SCT025 TEMPO 2206/2212 VRB15G25KT 5000 TSRA FEW020CB BKN025

Observacions i pronòstics meteorològics de més de 4000 aeroports (METAR i TAF).

Les estacions disponibles són els punts grocs i vermells al mapa.

Posi el ratolí al punt desitjat per veure el nom de l'estació.

Feu clic per veure les observacions i els pronòstics meteorològics.

Per canviar el mapa: feu clic els botons verds amb una creu de color negre per apropar; al botó verd amb un guió per allunyar la imatge; o en les fletxes verdes per a mapes adjacents.


METAR-TAF: